Flight Track Log - Related Links

Times and Time Zones

All times are in EDT time to prevent confusion due to time zone crossing. See the CHQ3037 flight status page for this flight to view local times or setup timezone preferences in your user account.


Time Position Orientation Groundspeed Altitude Reporting Facility
EDT Latitude Longitude Course Direction KTS MPH feet Rate Location/Type
Tue 06:32:59 AM 40.8167 -73.0833 97° East 161 185 1,500  Level New York TRACON
Tue 06:33:59 AM 40.8333 -73.0167 72° East 191 220 3,700 2,300 Climbing New York TRACON
Tue 06:34:59 AM 40.8167 -72.9500 108° East 224 258 6,100 2,100 Climbing New York TRACON
Tue 06:35:00 AM 40.7638 -72.8521 105° East  Level FlightAware Approximate
Tue 06:35:59 AM 40.8000 -72.8500 102° East 254 292 7,900  Level New York TRACON
Tue 06:36:00 AM 40.7500 -72.7711 90° East  Level FlightAware Approximate
Tue 06:37:00 AM 40.7472 -72.6880 97° East  Level FlightAware Approximate
Tue 06:38:00 AM 40.7389 -72.6053 97° East  Level FlightAware Approximate
Tue 06:38:27 AM 40.7478 -72.6236 107° East 269 310 10,600  Level Boston Center
Tue 06:39:27 AM 40.7228 -72.5167 107° East 287 330 12,400 1,900 Climbing Boston Center
Tue 06:40:27 AM 40.7042 -72.4100 103° East 287 330 14,400 1,950 Climbing Boston Center
Tue 06:41:27 AM 40.6769 -72.3033 109° East 297 342 16,300 1,750 Climbing Boston Center
Tue 06:42:27 AM 40.5997 -72.3144 186° South 215 247 17,900 1,550 Climbing Boston Center
Tue 06:43:27 AM 40.5478 -72.3964 230° Southwest 242 278 19,400 1,050 Climbing Boston Center
Tue 06:44:27 AM 40.5061 -72.4975 242° Southwest 290 334 20,000 300 Climbing Boston Center
Tue 06:45:27 AM 40.4539 -72.5875 233° Southwest 303 349 20,000  Level Boston Center
Tue 06:47:53 AM 40.3422 -72.8053 236° Southwest 290 334 20,000  Level New York Center
Tue 06:48:54 AM 40.2947 -72.8908 234° Southwest 296 341 20,000  Level New York Center
Tue 06:49:51 AM 40.2372 -72.9706 227° Southwest 301 346 20,000  Level New York Center
Tue 06:50:51 AM 40.1794 -73.0475 226° Southwest 301 346 20,000  Level New York Center
Tue 06:51:52 AM 40.1217 -73.1244 226° Southwest 301 346 20,000  Level New York Center
Tue 06:53:45 AM 40.0136 -73.2619 224° Southwest 298 343 20,000  Level Washington Center
Tue 06:54:45 AM 39.9547 -73.3369 224° Southwest 298 343 20,000  Level Washington Center
Tue 06:55:45 AM 39.8833 -73.4231 223° Southwest 298 343 20,000  Level Washington Center
Tue 06:56:45 AM 39.8244 -73.5006 225° Southwest 303 349 20,000  Level Washington Center
Tue 06:57:45 AM 39.7653 -73.5750 224° Southwest 308 354 20,000  Level Washington Center
Tue 06:58:45 AM 39.7039 -73.6522 224° Southwest 308 354 20,000  Level Washington Center
Tue 06:59:45 AM 39.6339 -73.7053 210° Southwest 308 354 20,000  Level Washington Center
Tue 07:00:45 AM 39.5469 -73.7319 193° South 298 343 20,000  Level Washington Center
Tue 07:01:45 AM 39.4639 -73.7528 191° South 305 351 20,000  Level Washington Center
Tue 07:02:45 AM 39.3808 -73.7739 191° South 305 351 20,000  Level Washington Center
Tue 07:03:45 AM 39.3000 -73.7972 193° South 305 351 20,000  Level Washington Center
Tue 07:04:45 AM 39.2189 -73.8208 193° South 300 345 20,000  Level Washington Center
Tue 07:05:45 AM 39.1383 -73.8575 199° South 300 345 20,000  Level Washington Center
Tue 07:06:45 AM 39.0811 -73.9417 229° Southwest 298 343 20,000  Level Washington Center
Tue 07:07:45 AM 39.0258 -74.0286 231° Southwest 308 354 20,000 -400 Level Washington Center
Tue 07:08:45 AM 38.9917 -74.1281 246° West 308 354 19,200 -950 Descending Washington Center
Tue 07:09:45 AM 38.9786 -74.2406 262° West 308 354 18,100 -600 Descending Washington Center
Tue 07:10:45 AM 38.9631 -74.3475 259° West 308 354 18,000 -50 Descending Washington Center
Tue 07:11:45 AM 38.9517 -74.4600 263° West 313 360 18,000 -100 Level Washington Center
Tue 07:12:45 AM 38.9358 -74.5694 259° West 313 360 17,800 -400 Descending Washington Center
Tue 07:13:45 AM 38.9244 -74.6817 263° West 318 366 17,200 -850 Descending Washington Center
Tue 07:14:45 AM 38.9106 -74.7886 261° West 313 360 16,100 -600 Descending Washington Center
Tue 07:15:45 AM 38.9006 -74.8794 262° West 313 360 16,000 -50 Descending Washington Center
Tue 07:16:45 AM 38.8867 -74.9917 261° West 313 360 16,000  Level Washington Center
Tue 07:17:45 AM 38.8747 -75.0956 262° West 313 360 16,000  Level Washington Center
Tue 07:18:45 AM 38.8606 -75.2050 261° West 313 360 16,000 -550 Level Washington Center
Tue 07:19:45 AM 38.8503 -75.3144 263° West 313 360 14,900 -1,300 Descending Washington Center
Tue 07:20:45 AM 38.8361 -75.4183 260° West 313 360 13,400 -1,300 Descending Washington Center
Tue 07:21:45 AM 38.8236 -75.5225 261° West 313 360 12,300 -1,050 Descending Washington Center
Tue 07:22:45 AM 38.8111 -75.6208 261° West 303 349 11,300 -650 Descending Washington Center
Tue 07:23:45 AM 38.7986 -75.7222 261° West 297 342 11,000 -150 Descending Washington Center
Tue 07:24:45 AM 38.7839 -75.8233 259° West 297 342 11,000  Level Washington Center
Tue 07:25:45 AM 38.7731 -75.9272 262° West 297 342 11,000  Level Washington Center
Tue 07:26:45 AM 38.7625 -76.0283 262° West 292 336 11,000  Level Washington Center
Tue 07:27:45 AM 38.7619 -76.1294 270° West 297 342 11,000 -300 Level Washington Center
Tue 07:28:45 AM 38.7678 -76.2386 274° West 292 336 10,400 -500 Descending Washington Center
Tue 07:29:45 AM 38.7756 -76.3400 276° West 287 330 10,000 -188 Descending Washington Center
Tue 07:30:53 AM 38.7833 -76.4500 275° West 282 325 10,000 47 Level Potomac TRACON
Tue 07:31:53 AM 38.8000 -76.5500 282° West 285 328 10,100 52 Climbing Potomac TRACON
Tue 07:32:48 AM 38.8000 -76.6500 270° West 283 326 10,100 -50 Level Potomac TRACON
Tue 07:33:54 AM 38.8000 -76.7500 270° West 281 323 10,000 -48 Descending Potomac TRACON
Tue 07:34:54 AM 38.8000 -76.8500 270° West 274 315 10,000 -850 Level Potomac TRACON
Tue 07:35:54 AM 38.7500 -76.9167 226° Southwest 276 318 8,300 -2,000 Descending Potomac TRACON
Tue 07:36:48 AM 38.6833 -76.9333 191° South 268 308 6,200 -2,421 Descending Potomac TRACON
Tue 07:37:48 AM 38.6333 -76.9833 218° Southwest 269 310 3,700 -1,850 Descending Potomac TRACON
Tue 07:38:48 AM 38.7000 -77.0167 339° North 221 254 2,500 -1,200 Descending Potomac TRACON

Login

Don't have an account? Register now (free) for customized features, flight alerts, and more!